createdAt,value
2018-07-13T00:00:23.383Z,4.30
2018-07-13T00:02:51.741Z,5.00
2018-07-13T00:05:20.122Z,4.03
2018-07-13T00:07:48.576Z,4.00
2018-07-13T00:10:16.984Z,4.67
2018-07-13T00:12:45.360Z,4.73
2018-07-13T00:15:14.017Z,3.80
2018-07-13T00:17:42.402Z,4.43
2018-07-13T00:20:10.780Z,4.43
2018-07-13T00:22:39.153Z,4.07
2018-07-13T00:25:07.565Z,4.27
2018-07-13T00:27:35.976Z,4.07
2018-07-13T00:30:04.571Z,4.60
2018-07-13T00:32:33.013Z,4.20
2018-07-13T00:35:01.433Z,4.53
2018-07-13T00:37:29.788Z,5.40
2018-07-13T00:39:58.162Z,4.10
2018-07-13T00:42:26.603Z,4.67
2018-07-13T00:44:55.015Z,4.27
2018-07-13T00:47:23.376Z,4.50
2018-07-13T00:49:52.056Z,4.13
2018-07-13T00:52:20.503Z,4.47
2018-07-13T00:54:48.893Z,4.20
2018-07-13T00:57:17.455Z,4.33
2018-07-13T00:59:45.811Z,4.43
2018-07-13T01:02:14.510Z,4.40
2018-07-13T01:04:43.134Z,4.10
2018-07-13T01:07:11.741Z,4.10
2018-07-13T01:09:41.347Z,4.67
2018-07-13T01:12:09.821Z,4.30
2018-07-13T01:14:38.448Z,4.90
2018-07-13T01:17:06.871Z,5.07
2018-07-13T01:19:35.636Z,4.17
2018-07-13T01:22:04.266Z,4.53
2018-07-13T01:24:32.803Z,4.33
2018-07-13T01:27:01.163Z,4.60
2018-07-13T01:29:29.494Z,4.70
2018-07-13T01:31:57.858Z,5.47
2018-07-13T01:34:26.208Z,4.60
2018-07-13T01:36:54.641Z,5.13
2018-07-13T01:39:23.042Z,4.50
2018-07-13T01:41:51.509Z,5.00
2018-07-13T01:44:19.858Z,5.27
2018-07-13T01:46:48.234Z,5.13
2018-07-13T01:49:16.608Z,4.80
2018-07-13T01:51:44.999Z,4.37
2018-07-13T01:54:13.420Z,5.20
2018-07-13T01:56:41.754Z,5.23
2018-07-13T01:59:10.240Z,4.77
2018-07-13T02:01:38.612Z,5.40
2018-07-13T02:04:06.993Z,4.77
2018-07-13T02:06:35.451Z,4.70
2018-07-13T02:09:04.323Z,5.50
2018-07-13T02:11:32.717Z,5.70
2018-07-13T02:14:01.076Z,5.13
2018-07-13T02:16:29.765Z,5.23
2018-07-13T02:18:58.147Z,5.67
2018-07-13T02:21:26.585Z,5.30
2018-07-13T02:23:55.079Z,4.73
2018-07-13T02:26:23.445Z,5.00
2018-07-13T02:28:51.853Z,5.87
2018-07-13T02:31:20.265Z,5.13
2018-07-13T02:33:48.717Z,5.87
2018-07-13T02:36:17.047Z,5.20
2018-07-13T02:38:45.409Z,6.13
2018-07-13T02:41:13.890Z,5.80
2018-07-13T02:43:42.356Z,5.87
2018-07-13T02:46:10.788Z,6.00
2018-07-13T02:48:39.136Z,5.63
2018-07-13T02:51:07.537Z,6.07
2018-07-13T02:53:35.872Z,5.53
2018-07-13T02:56:04.416Z,5.90
2018-07-13T02:58:32.776Z,6.43
2018-07-13T03:01:01.140Z,6.20
2018-07-13T03:03:29.502Z,6.40
2018-07-13T03:05:57.924Z,6.60
2018-07-13T03:08:26.302Z,6.00
2018-07-13T03:10:54.699Z,7.90
2018-07-13T03:13:23.395Z,8.37
2018-07-13T03:15:51.783Z,8.37
2018-07-13T03:18:20.176Z,8.43
2018-07-13T03:20:48.560Z,9.57
2018-07-13T03:23:16.947Z,9.33
2018-07-13T03:25:45.351Z,9.67
2018-07-13T03:28:13.725Z,7.67
2018-07-13T03:30:42.306Z,8.03
2018-07-13T03:33:10.744Z,7.03
2018-07-13T03:35:39.154Z,7.80
2018-07-13T03:38:07.582Z,6.20
2018-07-13T03:40:36.030Z,6.67
2018-07-13T03:43:04.424Z,6.13
2018-07-13T03:45:32.894Z,6.23
2018-07-13T03:48:01.331Z,6.50
2018-07-13T03:50:29.930Z,6.03
2018-07-13T03:52:58.439Z,5.97
2018-07-13T03:55:26.916Z,6.33
2018-07-13T03:57:55.298Z,6.00
2018-07-13T04:00:23.726Z,5.73
2018-07-13T04:02:52.095Z,6.30
2018-07-13T04:05:20.570Z,5.73
2018-07-13T04:07:48.954Z,6.33
2018-07-13T04:10:17.377Z,5.80
2018-07-13T04:12:45.779Z,6.37
2018-07-13T04:15:14.239Z,5.73
2018-07-13T04:17:42.664Z,6.27
2018-07-13T04:20:11.097Z,5.63
2018-07-13T04:22:39.767Z,5.87
2018-07-13T04:25:08.157Z,6.60
2018-07-13T04:27:37.115Z,5.80
2018-07-13T04:30:06.059Z,6.20
2018-07-13T04:32:34.471Z,6.17
2018-07-13T04:35:02.872Z,6.50
2018-07-13T04:37:31.415Z,6.17
2018-07-13T04:40:00.069Z,5.63
2018-07-13T04:42:28.488Z,6.00
2018-07-13T04:44:56.795Z,6.33
2018-07-13T04:47:25.199Z,6.20
2018-07-13T04:49:53.553Z,5.57
2018-07-13T04:52:21.975Z,6.90
2018-07-13T04:54:50.373Z,6.13
2018-07-13T04:57:18.764Z,5.67
2018-07-13T04:59:47.135Z,5.93
2018-07-13T05:02:15.737Z,5.70
2018-07-13T05:04:44.183Z,5.57
2018-07-13T05:07:12.633Z,5.97
2018-07-13T05:09:41.019Z,7.17
2018-07-13T05:12:09.793Z,5.87
2018-07-13T05:14:38.551Z,6.03
2018-07-13T05:17:07.061Z,6.10
2018-07-13T05:19:35.408Z,5.50
2018-07-13T05:22:03.888Z,5.63
2018-07-13T05:24:32.312Z,5.00
2018-07-13T05:27:00.773Z,5.20
2018-07-13T05:29:29.169Z,5.43
2018-07-13T05:31:57.646Z,5.10
2018-07-13T05:34:26.057Z,4.73
2018-07-13T05:36:54.482Z,4.40
2018-07-13T05:39:22.918Z,4.23
2018-07-13T05:41:51.403Z,5.33
2018-07-13T05:44:20.117Z,4.33
2018-07-13T05:46:48.487Z,4.73
2018-07-13T05:49:16.982Z,4.90
2018-07-13T05:51:45.712Z,4.13
2018-07-13T05:54:14.663Z,4.90
2018-07-13T05:56:43.177Z,4.30
2018-07-13T05:59:11.669Z,4.80
2018-07-13T06:01:40.107Z,4.57
2018-07-13T06:04:09.020Z,3.90
2018-07-13T06:06:37.454Z,4.87
2018-07-13T06:09:08.363Z,4.07
2018-07-13T06:11:57.925Z,4.13
2018-07-13T06:14:26.285Z,4.00
2018-07-13T06:16:54.685Z,4.50
2018-07-13T06:19:23.098Z,4.33
2018-07-13T06:21:52.235Z,5.13
2018-07-13T06:24:20.696Z,4.53
2018-07-13T06:26:49.137Z,4.30
2018-07-13T06:29:17.621Z,4.03
2018-07-13T06:31:46.048Z,3.83
2018-07-13T06:34:14.588Z,4.10
2018-07-13T06:36:42.962Z,3.73
2018-07-13T06:39:12.591Z,4.30
2018-07-13T06:41:41.021Z,5.30
2018-07-13T06:44:09.525Z,3.50
2018-07-13T06:46:42.608Z,5.23
2018-07-13T06:49:11.082Z,3.70
2018-07-13T06:51:39.598Z,4.10
2018-07-13T06:54:08.415Z,4.03
2018-07-13T06:56:44.246Z,3.57
2018-07-13T06:59:15.863Z,4.03
2018-07-13T07:01:44.900Z,4.20
2018-07-13T07:04:29.662Z,3.80
2018-07-13T07:06:59.371Z,3.83
2018-07-13T07:09:28.323Z,4.30
2018-07-13T07:12:10.066Z,3.43
2018-07-13T07:14:38.591Z,3.77
2018-07-13T07:17:07.067Z,3.27
2018-07-13T07:19:39.452Z,3.93
2018-07-13T07:22:07.837Z,4.00
2018-07-13T07:24:36.300Z,3.63
2018-07-13T07:27:06.293Z,3.40
2018-07-13T07:29:34.692Z,3.33
2018-07-13T07:32:03.152Z,3.43
2018-07-13T07:34:31.710Z,3.13
2018-07-13T07:37:00.174Z,3.30
2018-07-13T07:39:28.647Z,3.63
2018-07-13T07:41:57.061Z,3.40
2018-07-13T07:44:25.519Z,3.50
2018-07-13T07:46:53.971Z,3.90
2018-07-13T07:49:22.340Z,4.20
2018-07-13T07:51:50.875Z,3.53
2018-07-13T07:54:19.548Z,3.50
2018-07-13T07:56:47.899Z,3.63
2018-07-13T07:59:16.260Z,3.87
2018-07-13T08:01:44.861Z,3.67
2018-07-13T08:04:13.227Z,4.13
2018-07-13T08:06:41.908Z,3.80
2018-07-13T08:09:10.066Z,4.00
2018-07-13T08:11:38.478Z,3.53
2018-07-13T08:14:07.482Z,4.17
2018-07-13T08:16:35.868Z,3.33
2018-07-13T08:19:04.329Z,3.60
2018-07-13T08:21:36.563Z,3.80
2018-07-13T08:24:05.056Z,3.20
2018-07-13T08:26:33.560Z,3.13
2018-07-13T08:29:02.091Z,3.20
2018-07-13T08:31:30.548Z,3.73
2018-07-13T08:33:58.989Z,3.80
2018-07-13T08:36:27.416Z,3.23
2018-07-13T08:38:55.871Z,3.30
2018-07-13T08:41:24.359Z,3.60
2018-07-13T08:43:52.765Z,3.97
2018-07-13T08:46:21.186Z,3.43
2018-07-13T08:48:49.687Z,3.80
2018-07-13T08:51:18.143Z,4.40
2018-07-13T08:53:46.592Z,3.80
2018-07-13T08:56:15.049Z,3.93
2018-07-13T08:58:43.404Z,3.93
2018-07-13T09:01:11.826Z,3.60
2018-07-13T09:03:40.225Z,3.90
2018-07-13T09:06:09.314Z,3.80
2018-07-13T09:08:37.751Z,3.70
2018-07-13T09:11:06.469Z,3.90
2018-07-13T09:13:34.887Z,3.80
2018-07-13T09:16:03.303Z,3.60
2018-07-13T09:18:31.715Z,3.90
2018-07-13T09:21:00.099Z,3.70
2018-07-13T09:23:28.543Z,4.00
2018-07-13T09:25:56.965Z,3.80
2018-07-13T09:28:25.444Z,4.20
2018-07-13T09:30:53.904Z,3.97
2018-07-13T09:33:22.329Z,4.20
2018-07-13T09:35:51.292Z,4.10
2018-07-13T09:38:20.122Z,3.77
2018-07-13T09:40:48.594Z,3.50
2018-07-13T09:43:17.105Z,3.40
2018-07-13T09:45:45.570Z,3.80
2018-07-13T09:48:14.331Z,3.77
2018-07-13T09:50:42.732Z,4.13
2018-07-13T09:53:11.121Z,4.20
2018-07-13T09:55:39.552Z,4.13
2018-07-13T09:58:07.979Z,3.63
2018-07-13T10:00:41.682Z,3.90
2018-07-13T10:03:10.112Z,3.90
2018-07-13T10:05:38.509Z,4.00
2018-07-13T10:08:06.903Z,4.23
2018-07-13T10:10:35.365Z,4.07
2018-07-13T10:13:03.735Z,4.20
2018-07-13T10:15:32.175Z,4.70
2018-07-13T10:18:00.779Z,4.37
2018-07-13T10:20:29.182Z,3.80
2018-07-13T10:22:57.580Z,3.87
2018-07-13T10:25:28.136Z,4.30
2018-07-13T10:27:56.829Z,3.93
2018-07-13T10:30:25.978Z,4.67
2018-07-13T10:32:54.676Z,4.50
2018-07-13T10:35:23.085Z,3.80
2018-07-13T10:37:51.521Z,4.40
2018-07-13T10:40:19.930Z,4.93
2018-07-13T10:42:48.304Z,4.80
2018-07-13T10:45:16.656Z,4.73
2018-07-13T10:47:45.209Z,5.30
2018-07-13T10:50:14.243Z,5.57
2018-07-13T10:52:42.614Z,5.30
2018-07-13T10:55:11.066Z,4.93
2018-07-13T10:57:39.527Z,5.67
2018-07-13T11:00:07.900Z,5.33
2018-07-13T11:02:36.326Z,4.97
2018-07-13T11:05:05.311Z,5.40
2018-07-13T11:07:33.723Z,5.30
2018-07-13T11:10:02.066Z,5.30
2018-07-13T11:12:30.506Z,4.90
2018-07-13T11:14:58.945Z,4.73
2018-07-13T11:17:27.332Z,4.80
2018-07-13T11:19:55.694Z,4.83
2018-07-13T11:22:24.079Z,4.70
2018-07-13T11:24:52.542Z,5.20
2018-07-13T11:27:20.974Z,4.53
2018-07-13T11:29:49.474Z,4.57
2018-07-13T11:32:17.995Z,4.70
2018-07-13T11:34:46.567Z,5.33
2018-07-13T11:37:15.081Z,4.63
2018-07-13T11:39:43.383Z,4.07
2018-07-13T11:42:11.785Z,4.53
2018-07-13T11:44:40.171Z,4.77
2018-07-13T11:47:08.612Z,4.37
2018-07-13T11:49:36.995Z,4.20
2018-07-13T11:52:05.351Z,4.90
2018-07-13T11:54:33.772Z,5.00
2018-07-13T11:57:02.130Z,4.80
2018-07-13T11:59:30.701Z,4.67
2018-07-13T12:01:59.085Z,4.43
2018-07-13T12:04:27.434Z,4.67
2018-07-13T12:06:56.355Z,4.53
2018-07-13T12:09:24.773Z,4.57
2018-07-13T12:11:53.260Z,4.50
2018-07-13T12:14:21.689Z,4.20
2018-07-13T12:16:50.120Z,4.33
2018-07-13T12:19:18.511Z,4.70
2018-07-13T12:21:46.918Z,4.93
2018-07-13T12:24:15.459Z,4.80
2018-07-13T12:26:43.877Z,4.37
2018-07-13T12:29:13.133Z,4.40
2018-07-13T12:31:41.576Z,4.50
2018-07-13T12:34:09.963Z,4.07
2018-07-13T12:36:38.342Z,4.40
2018-07-13T12:39:07.043Z,4.77
2018-07-13T12:41:35.464Z,4.60
2018-07-13T12:44:03.932Z,4.00
2018-07-13T12:46:32.411Z,3.93
2018-07-13T12:49:00.898Z,4.23
2018-07-13T12:51:29.415Z,4.53
2018-07-13T12:53:57.824Z,4.30
2018-07-13T12:56:26.249Z,4.23
2018-07-13T12:58:54.700Z,3.93
2018-07-13T13:01:24.299Z,4.00
2018-07-13T13:03:52.896Z,3.97
2018-07-13T13:06:21.360Z,4.03
2018-07-13T13:08:49.749Z,3.50
2018-07-13T13:11:18.197Z,4.20
2018-07-13T13:13:46.542Z,3.50
2018-07-13T13:16:15.027Z,3.83
2018-07-13T13:18:43.411Z,3.60
2018-07-13T13:21:11.755Z,3.37
2018-07-13T13:23:40.095Z,3.77
2018-07-13T13:26:08.445Z,4.03
2018-07-13T13:28:36.806Z,4.10
2018-07-13T13:31:05.134Z,4.07
2018-07-13T13:33:33.697Z,4.20
2018-07-13T13:36:02.036Z,5.00
2018-07-13T13:38:31.655Z,4.17
2018-07-13T13:40:59.978Z,4.50
2018-07-13T13:43:28.340Z,4.00
2018-07-13T13:45:56.737Z,3.77
2018-07-13T13:48:25.133Z,4.20
2018-07-13T13:50:53.481Z,4.03
2018-07-13T13:53:21.799Z,4.20
2018-07-13T13:55:50.176Z,4.00
2018-07-13T13:58:18.559Z,4.30
2018-07-13T14:00:48.039Z,4.20
2018-07-13T14:03:16.502Z,3.77
2018-07-13T14:05:45.521Z,3.90
2018-07-13T14:08:13.928Z,4.33
2018-07-13T14:10:42.285Z,3.67
2018-07-13T14:13:10.655Z,3.87
2018-07-13T14:15:39.060Z,3.57
2018-07-13T14:18:07.699Z,3.60
2018-07-13T14:20:42.756Z,3.97
2018-07-13T14:23:11.471Z,3.70
2018-07-13T14:25:40.532Z,3.37
2018-07-13T14:28:08.894Z,3.60
2018-07-13T14:30:37.253Z,3.67
2018-07-13T14:33:05.641Z,3.73
2018-07-13T14:35:34.016Z,3.57
2018-07-13T14:38:02.367Z,3.50
2018-07-13T14:40:30.705Z,3.97
2018-07-13T14:42:59.071Z,3.77
2018-07-13T14:45:27.455Z,3.63
2018-07-13T14:47:55.842Z,3.57
2018-07-13T14:50:24.224Z,3.93
2018-07-13T14:52:55.948Z,3.90
2018-07-13T14:55:24.266Z,3.77
2018-07-13T14:57:52.701Z,3.33
2018-07-13T15:00:21.108Z,3.73
2018-07-13T15:02:49.659Z,3.60
2018-07-13T15:05:18.036Z,3.07
2018-07-13T15:07:46.519Z,3.50
2018-07-13T15:10:15.653Z,3.97
2018-07-13T15:12:45.006Z,3.40
2018-07-13T15:15:14.553Z,3.67
2018-07-13T15:17:44.934Z,3.33
2018-07-13T15:20:13.816Z,3.40
2018-07-13T15:22:54.072Z,3.33
2018-07-13T15:25:23.277Z,3.90
2018-07-13T15:27:52.340Z,3.40
2018-07-13T15:30:21.301Z,4.00
2018-07-13T15:32:50.984Z,3.37
2018-07-13T15:35:19.398Z,3.30
2018-07-13T15:37:48.341Z,3.30
2018-07-13T15:40:17.758Z,3.40
2018-07-13T15:42:47.314Z,3.50
2018-07-13T15:45:17.355Z,3.20
2018-07-13T15:47:47.703Z,3.10
2018-07-13T15:50:16.767Z,3.20
2018-07-13T15:52:45.612Z,3.03
2018-07-13T15:55:14.342Z,3.17
2018-07-13T15:57:45.120Z,2.83
2018-07-13T16:00:15.060Z,3.33
2018-07-13T16:02:43.551Z,3.27
2018-07-13T16:05:11.951Z,3.67
2018-07-13T16:07:40.303Z,3.80
2018-07-13T16:10:08.790Z,4.10
2018-07-13T16:12:37.181Z,3.70
2018-07-13T16:15:05.600Z,3.37
2018-07-13T16:17:33.927Z,3.00
2018-07-13T16:20:02.255Z,2.70
2018-07-13T16:22:30.579Z,2.93
2018-07-13T16:24:59.311Z,2.83
2018-07-13T16:27:27.687Z,5.07
2018-07-13T16:29:56.087Z,6.17
2018-07-13T16:32:24.510Z,12.17
2018-07-13T16:34:52.893Z,4.70
2018-07-13T16:37:21.303Z,6.53
2018-07-13T16:39:49.757Z,10.30
2018-07-13T16:42:18.239Z,6.43
2018-07-13T16:44:47.085Z,9.37
2018-07-13T16:47:15.689Z,9.27
2018-07-13T16:49:46.171Z,7.20
2018-07-13T16:52:14.655Z,5.73
2018-07-13T16:54:43.100Z,5.47
2018-07-13T16:57:11.502Z,6.70
2018-07-13T16:59:39.905Z,5.83
2018-07-13T17:02:08.273Z,5.23
2018-07-13T17:04:36.618Z,4.27
2018-07-13T17:07:05.150Z,3.80
2018-07-13T17:09:33.506Z,3.00
2018-07-13T17:12:01.865Z,4.80
2018-07-13T17:14:30.226Z,3.57
2018-07-13T17:16:59.127Z,6.60
2018-07-13T17:19:27.506Z,3.50
2018-07-13T17:21:55.938Z,3.70
2018-07-13T17:24:24.556Z,3.63
2018-07-13T17:26:53.019Z,2.70
2018-07-13T17:29:23.440Z,2.23
2018-07-13T17:31:51.759Z,2.60
2018-07-13T17:34:20.766Z,2.67
2018-07-13T17:37:09.965Z,2.80
2018-07-13T17:39:45.219Z,3.37
2018-07-13T17:42:13.662Z,3.90
2018-07-13T17:44:42.048Z,3.67
2018-07-13T17:47:10.394Z,4.07
2018-07-13T17:49:38.814Z,3.77
2018-07-13T17:52:07.258Z,4.57
2018-07-13T17:54:36.034Z,3.13
2018-07-13T17:57:04.595Z,3.37
2018-07-13T17:59:33.029Z,3.47
2018-07-13T18:02:01.664Z,3.83
2018-07-13T18:04:30.414Z,3.73
2018-07-13T18:06:58.836Z,3.90
2018-07-13T18:09:27.207Z,3.67
2018-07-13T18:11:55.610Z,3.23
2018-07-13T18:14:23.951Z,4.27
2018-07-13T18:16:52.802Z,3.43
2018-07-13T18:19:22.295Z,3.70
2018-07-13T18:21:50.739Z,3.77
2018-07-13T18:24:19.063Z,3.37
2018-07-13T18:26:47.445Z,3.70
2018-07-13T18:29:15.904Z,3.53
2018-07-13T18:31:44.261Z,3.53
2018-07-13T18:34:13.534Z,3.10
2018-07-13T18:36:42.403Z,3.60
2018-07-13T18:39:10.725Z,3.23
2018-07-13T18:41:39.082Z,3.60
2018-07-13T18:44:07.525Z,3.37
2018-07-13T18:46:35.839Z,3.17
2018-07-13T18:49:04.223Z,3.60
2018-07-13T18:51:32.573Z,3.30
2018-07-13T18:54:00.931Z,2.97
2018-07-13T18:56:29.252Z,3.27
2018-07-13T18:58:57.641Z,10.97
2018-07-13T19:01:26.126Z,10.43
2018-07-13T19:03:54.488Z,12.87
2018-07-13T19:06:22.838Z,6.87
2018-07-13T19:08:51.218Z,4.80
2018-07-13T19:11:19.599Z,4.53
2018-07-13T19:13:48.080Z,4.30
2018-07-13T19:16:17.544Z,5.47
2018-07-13T19:18:45.905Z,5.47
2018-07-13T19:21:14.272Z,5.40
2018-07-13T19:23:42.746Z,5.47
2018-07-13T19:26:11.159Z,5.37
2018-07-13T19:28:39.538Z,7.03
2018-07-13T19:31:08.022Z,4.57
2018-07-13T19:33:36.651Z,5.03
2018-07-13T19:36:05.139Z,4.97
2018-07-13T19:38:35.216Z,4.73
2018-07-13T19:41:03.710Z,4.80
2018-07-13T19:43:32.520Z,3.70
2018-07-13T19:46:00.939Z,3.87
2018-07-13T19:48:32.247Z,4.40
2018-07-13T19:51:04.457Z,3.70
2018-07-13T19:53:33.731Z,3.60
2018-07-13T19:56:02.867Z,3.70
2018-07-13T19:58:32.120Z,3.60
2018-07-13T20:01:04.951Z,3.47
2018-07-13T20:03:34.183Z,3.47
2018-07-13T20:06:04.191Z,3.67
2018-07-13T20:08:35.600Z,3.50
2018-07-13T20:11:06.412Z,4.00
2018-07-13T20:13:35.984Z,3.50
2018-07-13T20:16:05.350Z,3.67
2018-07-13T20:18:34.913Z,2.97
2018-07-13T20:21:05.235Z,3.30
2018-07-13T20:23:33.587Z,3.60
2018-07-13T20:26:01.961Z,3.33
2018-07-13T20:28:31.367Z,3.50
2018-07-13T20:30:59.888Z,3.10
2018-07-13T20:33:28.740Z,3.30
2018-07-13T20:35:57.325Z,3.20
2018-07-13T20:38:26.651Z,2.90
2018-07-13T20:40:55.590Z,3.23
2018-07-13T20:43:26.587Z,3.00
2018-07-13T20:45:56.045Z,3.30
2018-07-13T20:48:24.413Z,2.93
2018-07-13T20:50:52.799Z,3.33
2018-07-13T20:53:21.183Z,3.10
2018-07-13T20:55:49.540Z,3.10
2018-07-13T20:58:17.950Z,2.77
2018-07-13T21:00:46.376Z,2.97
2018-07-13T21:03:14.760Z,3.00
2018-07-13T21:05:43.312Z,3.00
2018-07-13T21:08:11.845Z,2.60
2018-07-13T21:10:40.186Z,2.80
2018-07-13T21:13:08.617Z,2.43
2018-07-13T21:15:36.963Z,2.60
2018-07-13T21:18:05.343Z,2.53
2018-07-13T21:20:33.767Z,2.13
2018-07-13T21:23:02.239Z,3.07
2018-07-13T21:25:30.599Z,2.40
2018-07-13T21:27:59.104Z,2.27
2018-07-13T21:30:27.448Z,2.50
2018-07-13T21:32:55.836Z,2.63
2018-07-13T21:35:24.168Z,2.60
2018-07-13T21:37:52.546Z,2.70
2018-07-13T21:40:20.914Z,2.63
2018-07-13T21:42:49.319Z,3.20
2018-07-13T21:45:17.842Z,2.80
2018-07-13T21:47:46.292Z,2.53
2018-07-13T21:50:14.710Z,2.60
2018-07-13T21:52:43.096Z,2.53
2018-07-13T21:55:11.476Z,3.10
2018-07-13T21:57:39.837Z,2.87
2018-07-13T22:00:08.245Z,2.83
2018-07-13T22:02:36.772Z,3.17
2018-07-13T22:05:05.060Z,2.93
2018-07-13T22:07:33.457Z,3.07
2018-07-13T22:10:01.835Z,3.30
2018-07-13T22:12:30.251Z,3.03
2018-07-13T22:14:58.593Z,3.07
2018-07-13T22:17:26.947Z,3.93
2018-07-13T22:19:55.307Z,3.73
2018-07-13T22:22:23.692Z,3.53
2018-07-13T22:24:52.108Z,3.47
2018-07-13T22:27:20.459Z,3.80
2018-07-13T22:29:48.820Z,3.73
2018-07-13T22:32:17.244Z,3.60
2018-07-13T22:34:45.621Z,3.63
2018-07-13T22:37:14.029Z,3.80
2018-07-13T22:39:42.442Z,3.40
2018-07-13T22:42:10.808Z,3.30
2018-07-13T22:44:39.172Z,3.20
2018-07-13T22:47:07.515Z,3.43
2018-07-13T22:49:35.933Z,3.67
2018-07-13T22:52:04.312Z,2.83
2018-07-13T22:54:32.662Z,3.40
2018-07-13T22:57:01.028Z,3.50
2018-07-13T22:59:29.402Z,3.60
2018-07-13T23:01:57.796Z,3.20
2018-07-13T23:04:26.159Z,3.60
2018-07-13T23:06:54.802Z,3.40
2018-07-13T23:09:23.164Z,3.53
2018-07-13T23:11:51.609Z,3.20
2018-07-13T23:14:19.958Z,3.70
2018-07-13T23:16:48.361Z,3.47
2018-07-13T23:19:18.474Z,3.40
2018-07-13T23:21:46.843Z,3.60
2018-07-13T23:24:15.570Z,3.50
2018-07-13T23:26:43.955Z,3.70
2018-07-13T23:29:12.319Z,3.20
2018-07-13T23:31:40.670Z,3.90
2018-07-13T23:34:09.079Z,3.57
2018-07-13T23:36:37.467Z,3.80
2018-07-13T23:39:06.268Z,3.70
2018-07-13T23:41:34.634Z,4.20
2018-07-13T23:44:03.104Z,3.40
2018-07-13T23:46:31.526Z,3.43
2018-07-13T23:48:59.927Z,3.23
2018-07-13T23:51:28.339Z,3.30
2018-07-13T23:53:56.719Z,4.17
2018-07-13T23:56:25.175Z,4.60
2018-07-13T23:58:53.559Z,4.20
